createdAt,value
2019-03-23T00:01:59.000Z,24.27
2019-03-23T00:11:59.000Z,24.23
2019-03-23T00:21:59.000Z,24.19
2019-03-23T00:31:59.000Z,24.12
2019-03-23T00:42:00.000Z,24.1
2019-03-23T00:52:00.000Z,24.07
2019-03-23T01:02:00.000Z,24.04
2019-03-23T01:12:00.000Z,23.99
2019-03-23T01:22:00.000Z,24.02
2019-03-23T01:32:00.000Z,23.95
2019-03-23T01:42:00.000Z,23.89
2019-03-23T01:52:00.000Z,23.84
2019-03-23T02:02:00.000Z,23.82
2019-03-23T02:12:00.000Z,23.73
2019-03-23T02:22:00.000Z,23.69
2019-03-23T02:32:00.000Z,23.62
2019-03-23T02:42:00.000Z,23.6
2019-03-23T02:52:00.000Z,23.52
2019-03-23T03:02:00.000Z,23.46
2019-03-23T03:12:00.000Z,23.43
2019-03-23T03:22:00.000Z,23.35
2019-03-23T03:32:00.000Z,23.34
2019-03-23T03:42:00.000Z,23.29
2019-03-23T03:52:00.000Z,23.21
2019-03-23T04:02:00.000Z,23.18
2019-03-23T04:12:00.000Z,23.12
2019-03-23T04:22:00.000Z,23.08
2019-03-23T04:32:00.000Z,23.05
2019-03-23T04:42:00.000Z,23
2019-03-23T04:52:00.000Z,22.97
2019-03-23T05:02:00.000Z,22.96
2019-03-23T05:12:00.000Z,22.97
2019-03-23T05:22:00.000Z,22.97
2019-03-23T05:32:00.000Z,22.99
2019-03-23T05:42:00.000Z,23.04
2019-03-23T05:52:00.000Z,23.03
2019-03-23T06:02:00.000Z,23.05
2019-03-23T06:12:00.000Z,23.08
2019-03-23T06:22:00.000Z,23.12
2019-03-23T06:32:00.000Z,23.15
2019-03-23T06:42:01.000Z,23.2
2019-03-23T06:52:00.000Z,23.21
2019-03-23T07:02:00.000Z,23.25
2019-03-23T07:12:00.000Z,23.27
2019-03-23T07:22:00.000Z,23.32
2019-03-23T07:32:00.000Z,23.32
2019-03-23T07:42:00.000Z,23.38
2019-03-23T07:52:00.000Z,23.45
2019-03-23T08:02:00.000Z,23.54
2019-03-23T08:12:00.000Z,23.53
2019-03-23T08:22:00.000Z,23.58
2019-03-23T08:32:00.000Z,23.6
2019-03-23T08:42:00.000Z,23.64
2019-03-23T08:52:00.000Z,23.72
2019-03-23T09:02:01.000Z,23.74
2019-03-23T09:12:01.000Z,23.77
2019-03-23T09:22:01.000Z,23.74
2019-03-23T09:32:01.000Z,23.7
2019-03-23T09:42:01.000Z,23.78
2019-03-23T09:52:01.000Z,23.79
2019-03-23T10:02:01.000Z,23.84
2019-03-23T10:12:01.000Z,23.87
2019-03-23T10:22:01.000Z,23.93
2019-03-23T10:32:02.000Z,24.01
2019-03-23T10:42:04.000Z,24.05
2019-03-23T10:52:01.000Z,24.12
2019-03-23T11:02:01.000Z,24.21
2019-03-23T11:12:01.000Z,23.77
2019-03-23T11:22:05.000Z,23.66
2019-03-23T11:32:01.000Z,23.6
2019-03-23T11:42:01.000Z,23.61
2019-03-23T11:52:01.000Z,23.56
2019-03-23T12:02:01.000Z,23.47
2019-03-23T12:12:01.000Z,23.49
2019-03-23T12:22:01.000Z,23.62
2019-03-23T12:32:02.000Z,23.87
2019-03-23T12:42:04.000Z,23.94
2019-03-23T12:52:01.000Z,24.03
2019-03-23T13:02:03.000Z,24.05
2019-03-23T13:12:01.000Z,24.13
2019-03-23T13:22:01.000Z,24.18
2019-03-23T13:32:01.000Z,24.27
2019-03-23T13:42:01.000Z,24.32
2019-03-23T14:02:01.000Z,24.42
2019-03-23T14:12:03.000Z,24.45
2019-03-23T14:22:01.000Z,24.47
2019-03-23T14:32:01.000Z,24.4
2019-03-23T14:42:01.000Z,24.52
2019-03-23T14:52:05.000Z,24.54
2019-03-23T15:02:01.000Z,24.58
2019-03-23T15:12:01.000Z,24.62
2019-03-23T15:22:01.000Z,24.65
2019-03-23T15:32:02.000Z,24.69
2019-03-23T15:42:02.000Z,24.64
2019-03-23T15:52:01.000Z,24.67
2019-03-23T16:02:01.000Z,24.71
2019-03-23T16:12:01.000Z,24.73
2019-03-23T16:22:01.000Z,24.68
2019-03-23T16:32:01.000Z,24.72
2019-03-23T16:42:03.000Z,24.7
2019-03-23T16:52:01.000Z,24.67
2019-03-23T17:02:02.000Z,24.65
2019-03-23T17:12:01.000Z,24.65
2019-03-23T17:22:01.000Z,24.64
2019-03-23T17:32:02.000Z,24.6
2019-03-23T17:42:02.000Z,24.61
2019-03-23T17:52:02.000Z,24.61
2019-03-23T18:02:02.000Z,24.7
2019-03-23T18:12:02.000Z,24.75
2019-03-23T18:22:04.000Z,24.76
2019-03-23T18:32:02.000Z,24.78
2019-03-23T18:42:02.000Z,24.79
2019-03-23T18:52:02.000Z,24.78
2019-03-23T19:02:02.000Z,24.78
2019-03-23T19:12:03.000Z,24.79
2019-03-23T19:22:02.000Z,24.84
2019-03-23T19:32:02.000Z,24.78
2019-03-23T19:42:02.000Z,24.81
2019-03-23T19:52:02.000Z,24.92
2019-03-23T20:02:02.000Z,25.05
2019-03-23T20:12:02.000Z,25.14
2019-03-23T20:22:02.000Z,25.17
2019-03-23T20:32:02.000Z,25.01
2019-03-23T20:42:02.000Z,24.98
2019-03-23T20:52:02.000Z,25.02
2019-03-23T21:02:02.000Z,25.07
2019-03-23T21:12:04.000Z,25.02
2019-03-23T21:22:02.000Z,25.01
2019-03-23T21:32:02.000Z,24.94
2019-03-23T21:42:02.000Z,24.89
2019-03-23T21:52:02.000Z,24.85
2019-03-23T22:02:02.000Z,24.83
2019-03-23T22:12:02.000Z,24.82
2019-03-23T22:22:02.000Z,24.77
2019-03-23T22:32:02.000Z,24.74
2019-03-23T22:42:03.000Z,24.69
2019-03-23T22:52:02.000Z,24.62
2019-03-23T23:02:02.000Z,24.57
2019-03-23T23:12:02.000Z,24.54
2019-03-23T23:22:02.000Z,24.44
2019-03-23T23:32:03.000Z,24.48
2019-03-23T23:52:06.000Z,24.38
